createdAt,value
2019-03-08T00:00:53.489Z,990.83
2019-03-08T00:01:53.464Z,990.82
2019-03-08T00:02:53.436Z,990.88
2019-03-08T00:03:53.412Z,990.96
2019-03-08T00:04:53.385Z,990.89
2019-03-08T00:05:53.361Z,991.04
2019-03-08T00:06:53.337Z,991.10
2019-03-08T00:07:53.369Z,991.07
2019-03-08T00:08:53.349Z,991.10
2019-03-08T00:09:53.301Z,991.12
2019-03-08T00:10:53.236Z,991.19
2019-03-08T00:11:53.315Z,991.14
2019-03-08T00:12:53.181Z,991.16
2019-03-08T00:13:53.158Z,991.12
2019-03-08T00:14:53.131Z,991.17
2019-03-08T00:15:53.162Z,991.20
2019-03-08T00:16:53.159Z,991.22
2019-03-08T00:17:53.120Z,991.31
2019-03-08T00:18:53.086Z,991.28
2019-03-08T00:19:53.077Z,991.14
2019-03-08T00:20:53.058Z,991.24
2019-03-08T00:21:53.025Z,991.09
2019-03-08T00:22:52.974Z,991.22
2019-03-08T00:23:52.960Z,991.02
2019-03-08T00:24:52.918Z,991.15
2019-03-08T00:25:52.901Z,991.26
2019-03-08T00:26:52.823Z,991.43
2019-03-08T00:27:52.873Z,991.46
2019-03-08T00:28:52.861Z,991.47
2019-03-08T00:29:52.831Z,991.36
2019-03-08T00:30:52.767Z,991.37
2019-03-08T00:31:52.707Z,991.27
2019-03-08T00:32:52.676Z,991.67
2019-03-08T00:33:52.645Z,991.48
2019-03-08T00:34:52.619Z,991.42
2019-03-08T00:35:52.624Z,991.47
2019-03-08T00:36:52.639Z,991.45
2019-03-08T00:37:52.548Z,991.59
2019-03-08T00:38:52.593Z,991.88
2019-03-08T00:39:52.492Z,991.52
2019-03-08T00:40:52.467Z,991.53
2019-03-08T00:41:52.471Z,991.60
2019-03-08T00:42:52.417Z,991.54
2019-03-08T00:43:52.389Z,991.90
2019-03-08T00:44:52.389Z,991.64
2019-03-08T00:45:52.364Z,991.61
2019-03-08T00:46:52.355Z,991.63
2019-03-08T00:47:52.314Z,991.76
2019-03-08T00:48:52.328Z,991.90
2019-03-08T00:49:52.275Z,991.67
2019-03-08T00:50:52.208Z,991.74
2019-03-08T00:51:52.237Z,991.80
2019-03-08T00:52:52.157Z,991.76
2019-03-08T00:53:52.133Z,991.67
2019-03-08T00:54:52.164Z,991.69
2019-03-08T00:55:52.089Z,991.75
2019-03-08T00:56:52.115Z,991.76
2019-03-08T00:57:52.079Z,991.82
2019-03-08T00:58:52.028Z,991.73
2019-03-08T00:59:51.977Z,991.63
2019-03-08T01:00:51.996Z,991.79
2019-03-08T01:01:51.926Z,991.70
2019-03-08T01:02:51.902Z,991.92
2019-03-08T01:03:51.874Z,992.12
2019-03-08T01:04:51.882Z,991.84
2019-03-08T01:05:51.896Z,991.95
2019-03-08T01:06:51.796Z,991.95
2019-03-08T01:07:51.773Z,991.82
2019-03-08T01:08:51.745Z,991.66
2019-03-08T01:09:51.727Z,991.81
2019-03-08T01:10:51.694Z,991.93
2019-03-08T01:11:51.668Z,991.73
2019-03-08T01:12:51.645Z,991.90
2019-03-08T01:13:51.617Z,992.10
2019-03-08T01:14:51.590Z,991.86
2019-03-08T01:15:51.567Z,991.90
2019-03-08T01:16:51.546Z,991.82
2019-03-08T01:17:51.515Z,991.91
2019-03-08T01:18:51.485Z,991.95
2019-03-08T01:19:51.481Z,991.96
2019-03-08T01:20:51.434Z,991.83
2019-03-08T01:21:51.421Z,992.14
2019-03-08T01:22:51.383Z,991.91
2019-03-08T01:23:51.358Z,991.96
2019-03-08T01:24:51.332Z,992.05
2019-03-08T01:25:51.306Z,992.03
2019-03-08T01:26:51.279Z,992.05
2019-03-08T01:27:51.254Z,992.09
2019-03-08T01:28:51.229Z,992.13
2019-03-08T01:29:51.205Z,992.12
2019-03-08T01:30:51.176Z,992.20
2019-03-08T01:31:51.151Z,992.15
2019-03-08T01:32:51.195Z,992.15
2019-03-08T01:33:51.099Z,992.14
2019-03-08T01:34:51.072Z,992.17
2019-03-08T01:35:51.098Z,992.12
2019-03-08T01:36:51.021Z,992.23
2019-03-08T01:37:51.066Z,992.57
2019-03-08T01:38:50.974Z,992.37
2019-03-08T01:39:51.004Z,992.36
2019-03-08T01:40:50.926Z,992.34
2019-03-08T01:41:50.895Z,992.30
2019-03-08T01:42:50.866Z,992.39
2019-03-08T01:43:50.872Z,992.53
2019-03-08T01:44:50.841Z,992.47
2019-03-08T01:45:50.796Z,992.53
2019-03-08T01:46:50.763Z,992.74
2019-03-08T01:47:50.737Z,992.73
2019-03-08T01:48:50.730Z,992.75
2019-03-08T01:49:50.685Z,992.82
2019-03-08T01:50:50.661Z,992.93
2019-03-08T01:51:50.636Z,992.99
2019-03-08T01:52:50.607Z,993.03
2019-03-08T01:53:50.585Z,993.15
2019-03-08T01:54:50.561Z,993.04
2019-03-08T01:55:50.530Z,993.15
2019-03-08T01:56:50.506Z,993.13
2019-03-08T01:57:50.481Z,993.22
2019-03-08T01:58:50.451Z,993.30
2019-03-08T01:59:50.428Z,993.21
2019-03-08T02:00:50.402Z,993.26
2019-03-08T02:01:50.375Z,993.21
2019-03-08T02:02:50.353Z,993.19
2019-03-08T02:03:50.324Z,993.28
2019-03-08T02:04:50.299Z,993.22
2019-03-08T02:05:50.272Z,993.38
2019-03-08T02:06:50.249Z,993.31
2019-03-08T02:07:50.223Z,993.21
2019-03-08T02:08:50.194Z,993.24
2019-03-08T02:09:50.168Z,993.26
2019-03-08T02:10:50.142Z,993.30
2019-03-08T02:11:50.128Z,993.36
2019-03-08T02:12:50.090Z,993.34
2019-03-08T02:13:50.065Z,993.28
2019-03-08T02:14:50.037Z,993.34
2019-03-08T02:15:50.015Z,993.40
2019-03-08T02:16:49.993Z,993.33
2019-03-08T02:17:49.960Z,993.37
2019-03-08T02:18:49.933Z,993.41
2019-03-08T02:19:49.907Z,993.38
2019-03-08T02:20:49.880Z,993.38
2019-03-08T02:21:49.857Z,993.43
2019-03-08T02:22:49.833Z,993.44
2019-03-08T02:23:49.802Z,993.43
2019-03-08T02:24:49.784Z,993.38
2019-03-08T02:25:49.751Z,993.48
2019-03-08T02:26:49.726Z,993.42
2019-03-08T02:27:49.698Z,993.46
2019-03-08T02:28:49.674Z,993.44
2019-03-08T02:29:49.648Z,993.43
2019-03-08T02:30:49.623Z,993.42
2019-03-08T02:31:49.595Z,993.46
2019-03-08T02:32:49.570Z,993.45
2019-03-08T02:33:49.544Z,993.42
2019-03-08T02:34:49.516Z,993.39
2019-03-08T02:35:49.489Z,993.45
2019-03-08T02:36:49.463Z,993.36
2019-03-08T02:37:49.438Z,993.50
2019-03-08T02:38:49.420Z,993.47
2019-03-08T02:39:49.385Z,993.55
2019-03-08T02:40:49.365Z,993.66
2019-03-08T02:41:49.336Z,993.54
2019-03-08T02:42:49.313Z,993.44
2019-03-08T02:43:49.284Z,993.46
2019-03-08T02:44:49.256Z,993.45
2019-03-08T02:45:49.230Z,993.47
2019-03-08T02:46:49.204Z,993.49
2019-03-08T02:47:49.180Z,993.51
2019-03-08T02:48:49.152Z,993.57
2019-03-08T02:49:49.127Z,993.45
2019-03-08T02:50:49.103Z,993.44
2019-03-08T02:51:49.074Z,993.58
2019-03-08T02:52:49.049Z,993.56
2019-03-08T02:53:49.025Z,993.60
2019-03-08T02:54:49.033Z,993.48
2019-03-08T02:55:48.971Z,993.54
2019-03-08T02:56:48.945Z,993.46
2019-03-08T02:57:48.925Z,993.55
2019-03-08T02:58:48.897Z,993.55
2019-03-08T02:59:48.867Z,993.45
2019-03-08T03:00:48.844Z,993.67
2019-03-08T03:01:48.818Z,993.62
2019-03-08T03:02:48.795Z,993.67
2019-03-08T03:03:48.762Z,993.51
2019-03-08T03:04:48.750Z,993.61
2019-03-08T03:05:48.711Z,993.68
2019-03-08T03:06:48.684Z,993.90
2019-03-08T03:07:48.659Z,993.82
2019-03-08T03:08:48.633Z,993.85
2019-03-08T03:09:48.608Z,993.70
2019-03-08T03:10:48.581Z,993.76
2019-03-08T03:11:48.554Z,993.75
2019-03-08T03:12:48.529Z,993.71
2019-03-08T03:13:48.504Z,993.82
2019-03-08T03:14:48.478Z,993.81
2019-03-08T03:15:48.452Z,993.88
2019-03-08T03:16:48.425Z,993.95
2019-03-08T03:17:48.399Z,993.93
2019-03-08T03:18:48.375Z,993.89
2019-03-08T03:19:48.348Z,993.97
2019-03-08T03:20:48.322Z,994.01
2019-03-08T03:21:48.298Z,994.03
2019-03-08T03:22:48.274Z,993.92
2019-03-08T03:23:48.248Z,994.16
2019-03-08T03:24:48.220Z,994.12
2019-03-08T03:25:48.207Z,994.22
2019-03-08T03:26:48.169Z,994.24
2019-03-08T03:27:48.140Z,994.16
2019-03-08T03:28:48.115Z,994.21
2019-03-08T03:29:48.103Z,994.27
2019-03-08T03:30:48.069Z,994.31
2019-03-08T03:31:48.040Z,994.26
2019-03-08T03:32:48.032Z,994.34
2019-03-08T03:33:47.991Z,994.30
2019-03-08T03:34:48.005Z,994.35
2019-03-08T03:35:47.936Z,994.34
2019-03-08T03:36:47.910Z,994.41
2019-03-08T03:37:47.886Z,994.42
2019-03-08T03:38:47.858Z,994.36
2019-03-08T03:39:47.834Z,994.48
2019-03-08T03:40:47.807Z,994.41
2019-03-08T03:41:47.781Z,994.53
2019-03-08T03:42:47.759Z,994.50
2019-03-08T03:43:47.729Z,994.50
2019-03-08T03:44:47.707Z,994.51
2019-03-08T03:45:47.685Z,994.61
2019-03-08T03:46:47.652Z,994.64
2019-03-08T03:47:47.641Z,994.63
2019-03-08T03:48:47.617Z,994.72
2019-03-08T03:49:47.576Z,994.72
2019-03-08T03:50:47.555Z,994.69
2019-03-08T03:51:47.529Z,994.83
2019-03-08T03:52:47.498Z,994.92
2019-03-08T03:53:47.474Z,994.80
2019-03-08T03:54:47.446Z,994.98
2019-03-08T03:55:47.421Z,994.81
2019-03-08T03:56:47.396Z,994.93
2019-03-08T03:57:47.370Z,994.85
2019-03-08T03:58:47.344Z,994.84
2019-03-08T03:59:47.323Z,994.88
2019-03-08T04:00:47.294Z,994.99
2019-03-08T04:01:47.267Z,994.99
2019-03-08T04:02:47.241Z,995.00
2019-03-08T04:03:47.219Z,995.05
2019-03-08T04:04:47.190Z,995.05
2019-03-08T04:05:47.177Z,995.08
2019-03-08T04:06:47.139Z,995.13
2019-03-08T04:07:47.115Z,995.12
2019-03-08T04:08:47.087Z,995.08
2019-03-08T04:09:47.094Z,995.20
2019-03-08T04:10:47.051Z,995.12
2019-03-08T04:11:47.009Z,995.15
2019-03-08T04:12:46.993Z,995.34
2019-03-08T04:13:46.961Z,995.31
2019-03-08T04:14:46.934Z,995.21
2019-03-08T04:15:46.907Z,995.26
2019-03-08T04:16:46.881Z,995.25
2019-03-08T04:17:46.873Z,995.31
2019-03-08T04:18:46.832Z,995.31
2019-03-08T04:19:46.820Z,995.33
2019-03-08T04:20:46.783Z,995.37
2019-03-08T04:21:46.753Z,995.46
2019-03-08T04:22:46.727Z,995.38
2019-03-08T04:23:46.702Z,995.44
2019-03-08T04:24:46.676Z,995.44
2019-03-08T04:25:46.649Z,995.48
2019-03-08T04:26:46.624Z,995.43
2019-03-08T04:27:46.603Z,995.51
2019-03-08T04:28:46.573Z,995.57
2019-03-08T04:29:46.548Z,995.57
2019-03-08T04:30:46.523Z,995.56
2019-03-08T04:31:46.498Z,995.60
2019-03-08T04:32:46.484Z,995.60
2019-03-08T04:33:46.444Z,995.54
2019-03-08T04:34:46.422Z,995.53
2019-03-08T04:35:46.395Z,995.64
2019-03-08T04:36:46.368Z,995.60
2019-03-08T04:37:46.355Z,995.72
2019-03-08T04:38:46.317Z,995.67
2019-03-08T04:39:46.295Z,995.73
2019-03-08T04:40:46.264Z,995.67
2019-03-08T04:41:46.238Z,995.73
2019-03-08T04:42:46.213Z,995.70
2019-03-08T04:43:46.192Z,995.79
2019-03-08T04:44:46.161Z,995.81
2019-03-08T04:45:46.135Z,995.79
2019-03-08T04:46:46.109Z,995.81
2019-03-08T04:47:46.083Z,995.85
2019-03-08T04:48:46.065Z,995.93
2019-03-08T04:49:46.036Z,996.00
2019-03-08T04:50:46.011Z,996.04
2019-03-08T04:51:45.981Z,996.07
2019-03-08T04:52:45.959Z,996.16
2019-03-08T04:53:45.932Z,996.12
2019-03-08T04:54:45.909Z,996.05
2019-03-08T04:55:45.878Z,996.10
2019-03-08T04:56:45.852Z,996.10
2019-03-08T04:57:45.830Z,996.16
2019-03-08T04:58:45.803Z,996.15
2019-03-08T04:59:45.776Z,996.16
2019-03-08T05:00:45.751Z,996.24
2019-03-08T05:01:45.727Z,996.23
2019-03-08T05:02:45.698Z,996.16
2019-03-08T05:03:45.673Z,996.21
2019-03-08T05:04:45.658Z,996.34
2019-03-08T05:05:45.622Z,996.41
2019-03-08T05:06:45.636Z,996.32
2019-03-08T05:07:45.571Z,996.34
2019-03-08T05:08:45.886Z,996.40
2019-03-08T05:09:45.519Z,996.39
2019-03-08T05:10:45.493Z,996.37
2019-03-08T05:11:45.470Z,996.42
2019-03-08T05:12:45.441Z,996.43
2019-03-08T05:13:45.414Z,996.40
2019-03-08T05:14:45.389Z,996.51
2019-03-08T05:15:45.365Z,996.49
2019-03-08T05:16:45.338Z,996.52
2019-03-08T05:17:45.312Z,996.56
2019-03-08T05:18:45.288Z,996.56
2019-03-08T05:19:45.267Z,996.58
2019-03-08T05:20:45.310Z,996.54
2019-03-08T05:21:45.236Z,996.71
2019-03-08T05:22:45.188Z,996.61
2019-03-08T05:23:45.158Z,996.61
2019-03-08T05:24:45.136Z,996.60
2019-03-08T05:25:45.105Z,996.58
2019-03-08T05:26:45.079Z,996.67
2019-03-08T05:27:45.053Z,996.68
2019-03-08T05:28:45.029Z,996.68
2019-03-08T05:29:45.006Z,996.69
2019-03-08T05:30:44.978Z,996.78
2019-03-08T05:31:44.952Z,996.75
2019-03-08T05:32:44.930Z,996.75
2019-03-08T05:33:44.901Z,996.78
2019-03-08T05:34:44.875Z,996.74
2019-03-08T05:35:44.850Z,996.82
2019-03-08T05:36:44.823Z,996.87
2019-03-08T05:37:46.646Z,996.84
2019-03-08T05:38:44.771Z,996.88
2019-03-08T05:39:44.748Z,996.86
2019-03-08T05:40:44.724Z,996.88
2019-03-08T05:41:44.699Z,997.04
2019-03-08T05:42:44.672Z,997.04
2019-03-08T05:43:44.646Z,997.01
2019-03-08T05:44:44.622Z,997.09
2019-03-08T05:45:44.593Z,997.17
2019-03-08T05:46:44.567Z,997.24
2019-03-08T05:47:44.542Z,997.23
2019-03-08T05:48:44.517Z,997.31
2019-03-08T05:49:44.490Z,997.20
2019-03-08T05:50:44.467Z,997.23
2019-03-08T05:51:44.439Z,997.24
2019-03-08T05:52:44.412Z,997.38
2019-03-08T05:53:44.389Z,997.33
2019-03-08T05:54:44.361Z,997.42
2019-03-08T05:55:44.335Z,997.45
2019-03-08T05:56:44.310Z,997.44
2019-03-08T05:57:44.285Z,997.52
2019-03-08T05:58:44.260Z,997.54
2019-03-08T05:59:45.511Z,997.49
2019-03-08T06:00:44.207Z,997.52
2019-03-08T06:01:44.181Z,997.58
2019-03-08T06:02:44.156Z,997.66
2019-03-08T06:03:44.141Z,997.66
2019-03-08T06:04:44.105Z,997.71
2019-03-08T06:05:44.082Z,997.74
2019-03-08T06:06:44.054Z,997.72
2019-03-08T06:07:44.027Z,997.70
2019-03-08T06:08:44.003Z,997.84
2019-03-08T06:09:43.982Z,997.83
2019-03-08T06:10:43.950Z,997.76
2019-03-08T06:11:43.925Z,997.85
2019-03-08T06:12:43.898Z,997.83
2019-03-08T06:13:43.873Z,997.94
2019-03-08T06:14:43.847Z,997.90
2019-03-08T06:15:43.823Z,997.93
2019-03-08T06:16:43.795Z,998.01
2019-03-08T06:17:43.772Z,997.97
2019-03-08T06:18:43.747Z,998.06
2019-03-08T06:19:43.719Z,998.09
2019-03-08T06:20:43.698Z,998.14
2019-03-08T06:21:43.667Z,998.12
2019-03-08T06:22:43.641Z,998.14
2019-03-08T06:23:43.618Z,998.04
2019-03-08T06:24:43.591Z,998.23
2019-03-08T06:25:43.564Z,998.23
2019-03-08T06:26:43.539Z,998.34
2019-03-08T06:27:43.514Z,998.34
2019-03-08T06:28:43.501Z,998.40
2019-03-08T06:29:43.466Z,998.36
2019-03-08T06:30:43.436Z,998.44
2019-03-08T06:31:43.411Z,998.48
2019-03-08T06:32:43.385Z,998.59
2019-03-08T06:33:43.359Z,998.58
2019-03-08T06:34:43.334Z,998.54
2019-03-08T06:35:43.305Z,998.61
2019-03-08T06:36:43.280Z,998.65
2019-03-08T06:37:43.256Z,998.68
2019-03-08T06:38:43.232Z,998.70
2019-03-08T06:39:43.202Z,998.74
2019-03-08T06:40:43.180Z,998.72
2019-03-08T06:41:43.155Z,998.80
2019-03-08T06:42:43.124Z,998.89
2019-03-08T06:43:43.101Z,998.89
2019-03-08T06:44:43.074Z,998.88
2019-03-08T06:45:43.058Z,998.89
2019-03-08T06:46:43.028Z,998.95
2019-03-08T06:47:42.998Z,998.99
2019-03-08T06:48:42.973Z,998.99
2019-03-08T06:49:42.954Z,999.03
2019-03-08T06:50:42.927Z,999.08
2019-03-08T06:51:42.895Z,999.08
2019-03-08T06:52:42.870Z,999.10
2019-03-08T06:53:42.849Z,999.17
2019-03-08T06:54:42.816Z,999.17
2019-03-08T06:55:42.794Z,999.20
2019-03-08T06:56:42.766Z,999.21
2019-03-08T06:57:42.740Z,999.29
2019-03-08T06:58:42.713Z,999.40
2019-03-08T06:59:42.688Z,999.35
2019-03-08T07:00:42.666Z,999.35
2019-03-08T07:01:42.638Z,999.38
2019-03-08T07:02:42.614Z,999.49
2019-03-08T07:03:42.588Z,999.46
2019-03-08T07:04:42.561Z,999.51
2019-03-08T07:05:42.535Z,999.53
2019-03-08T07:06:42.510Z,999.62
2019-03-08T07:07:42.486Z,999.64
2019-03-08T07:08:42.462Z,999.64
2019-03-08T07:09:42.434Z,999.70
2019-03-08T07:10:42.408Z,999.66
2019-03-08T07:11:42.386Z,999.70
2019-03-08T07:12:42.360Z,999.80
2019-03-08T07:13:42.331Z,999.72
2019-03-08T07:14:42.306Z,999.79
2019-03-08T07:15:42.288Z,999.85
2019-03-08T07:16:42.259Z,999.92
2019-03-08T07:17:42.234Z,999.88
2019-03-08T07:18:42.208Z,999.94
2019-03-08T07:19:42.179Z,999.98
2019-03-08T07:20:42.160Z,999.99
2019-03-08T07:21:42.129Z,999.98
2019-03-08T07:22:42.102Z,1000.03
2019-03-08T07:23:42.082Z,1000.11
2019-03-08T07:24:42.052Z,1000.15
2019-03-08T07:25:50.961Z,1000.12
2019-03-08T07:26:42.002Z,1000.23
2019-03-08T07:27:41.977Z,1000.30
2019-03-08T07:28:41.951Z,1000.36
2019-03-08T07:29:41.926Z,1000.31
2019-03-08T07:30:41.901Z,1000.39
2019-03-08T07:31:41.883Z,1000.35
2019-03-08T07:32:41.850Z,1000.42
2019-03-08T07:33:41.826Z,1000.44
2019-03-08T07:34:41.799Z,1000.45
2019-03-08T07:35:41.774Z,1000.50
2019-03-08T07:36:41.749Z,1000.61
2019-03-08T07:37:41.722Z,1000.63
2019-03-08T07:38:41.697Z,1000.64
2019-03-08T07:39:41.679Z,1000.65
2019-03-08T07:40:41.647Z,1000.62
2019-03-08T07:41:41.622Z,1000.72
2019-03-08T07:42:41.598Z,1000.74
2019-03-08T07:43:41.571Z,1000.83
2019-03-08T07:44:41.547Z,1000.83
2019-03-08T07:45:41.519Z,1000.85
2019-03-08T07:46:41.508Z,1000.82
2019-03-08T07:47:41.467Z,1000.89
2019-03-08T07:48:41.443Z,1000.97
2019-03-08T07:49:41.416Z,1000.92
2019-03-08T07:50:41.393Z,1000.93
2019-03-08T07:51:41.365Z,1000.96
2019-03-08T07:52:41.342Z,1001.00
2019-03-08T07:53:41.320Z,1001.07
2019-03-08T07:54:41.288Z,1001.06
2019-03-08T07:55:41.263Z,1001.11
2019-03-08T07:56:41.238Z,1001.18
2019-03-08T07:57:41.214Z,1001.20
2019-03-08T07:58:41.187Z,1001.16
2019-03-08T07:59:41.163Z,1001.15
2019-03-08T08:00:41.137Z,1001.15
2019-03-08T08:01:41.111Z,1001.18
2019-03-08T08:02:41.085Z,1001.30
2019-03-08T08:03:41.060Z,1001.33
2019-03-08T08:04:41.037Z,1001.25
2019-03-08T08:05:41.010Z,1001.31
2019-03-08T08:06:40.984Z,1001.32
2019-03-08T08:07:40.961Z,1001.42
2019-03-08T08:08:40.936Z,1001.44
2019-03-08T08:09:40.918Z,1001.44
2019-03-08T08:10:40.906Z,1001.52
2019-03-08T08:11:40.858Z,1001.56
2019-03-08T08:12:40.834Z,1001.61
2019-03-08T08:13:40.809Z,1001.68
2019-03-08T08:14:40.784Z,1001.60
2019-03-08T08:15:40.761Z,1001.73
2019-03-08T08:16:40.735Z,1001.68
2019-03-08T08:17:40.711Z,1001.73
2019-03-08T08:18:40.685Z,1001.74
2019-03-08T08:19:40.659Z,1001.68
2019-03-08T08:20:40.634Z,1001.72
2019-03-08T08:21:40.608Z,1001.76
2019-03-08T08:22:40.584Z,1001.72
2019-03-08T08:23:40.562Z,1001.75
2019-03-08T08:24:40.535Z,1001.74
2019-03-08T08:25:40.514Z,1001.80
2019-03-08T08:26:40.484Z,1001.77
2019-03-08T08:27:40.460Z,1001.79
2019-03-08T08:28:49.458Z,1001.83
2019-03-08T08:29:40.421Z,1001.88
2019-03-08T08:30:40.399Z,1001.85
2019-03-08T08:31:40.359Z,1001.94
2019-03-08T08:32:40.331Z,1002.02
2019-03-08T08:33:40.310Z,1002.00
2019-03-08T08:34:40.282Z,1001.99
2019-03-08T08:35:40.260Z,1002.03
2019-03-08T08:36:40.264Z,1002.05
2019-03-08T08:37:40.207Z,1002.18
2019-03-08T08:38:40.206Z,1002.12
2019-03-08T08:39:41.053Z,1002.17
2019-03-08T08:40:40.144Z,1002.16
2019-03-08T08:41:40.115Z,1002.22
2019-03-08T08:42:40.083Z,1002.17
2019-03-08T08:43:40.058Z,1002.19
2019-03-08T08:44:40.034Z,1002.27
2019-03-08T08:45:40.008Z,1002.15
2019-03-08T08:46:39.983Z,1002.24
2019-03-08T08:47:39.959Z,1002.25
2019-03-08T08:48:39.934Z,1002.28
2019-03-08T08:49:39.909Z,1002.35
2019-03-08T08:50:39.884Z,1002.33
2019-03-08T08:51:39.859Z,1002.35
2019-03-08T08:52:39.836Z,1002.47
2019-03-08T08:53:39.820Z,1002.48
2019-03-08T08:54:39.789Z,1002.50
2019-03-08T08:55:39.764Z,1002.49
2019-03-08T08:56:39.775Z,1002.64
2019-03-08T08:57:39.713Z,1002.65
2019-03-08T08:58:39.688Z,1002.64
2019-03-08T08:59:39.663Z,1002.68
2019-03-08T09:00:39.647Z,1002.66
2019-03-08T09:01:39.615Z,1002.62
2019-03-08T09:02:39.590Z,1002.71
2019-03-08T09:03:39.566Z,1002.78
2019-03-08T09:04:39.542Z,1002.87
2019-03-08T09:05:39.523Z,1002.93
2019-03-08T09:06:39.501Z,1002.91
2019-03-08T09:07:39.471Z,1002.95
2019-03-08T09:08:39.444Z,1002.92
2019-03-08T09:09:39.425Z,1002.99
2019-03-08T09:10:39.398Z,1003.02
2019-03-08T09:11:46.037Z,1003.03
2019-03-08T09:12:39.347Z,1003.18
2019-03-08T09:13:39.324Z,1003.09
2019-03-08T09:14:39.297Z,1003.08
2019-03-08T09:15:39.280Z,1003.15
2019-03-08T09:16:39.261Z,1003.14
2019-03-08T09:17:39.226Z,1003.05
2019-03-08T09:18:39.200Z,1003.09
2019-03-08T09:19:39.198Z,1003.11
2019-03-08T09:20:39.162Z,1003.12
2019-03-08T09:21:39.129Z,1003.20
2019-03-08T09:22:39.103Z,1003.15
2019-03-08T09:23:39.078Z,1003.20
2019-03-08T09:24:39.056Z,1003.23
2019-03-08T09:25:39.030Z,1003.23
2019-03-08T09:26:39.006Z,1003.27
2019-03-08T09:27:38.981Z,1003.27
2019-03-08T09:28:38.959Z,1003.20
2019-03-08T09:29:41.471Z,1003.30
2019-03-08T09:30:38.914Z,1003.20
2019-03-08T09:31:38.885Z,1003.30
2019-03-08T09:32:38.860Z,1003.30
2019-03-08T09:33:38.839Z,1003.23
2019-03-08T09:34:38.814Z,1003.24
2019-03-08T09:35:38.789Z,1003.22
2019-03-08T09:36:38.763Z,1003.28
2019-03-08T09:37:38.740Z,1003.30
2019-03-08T09:38:38.715Z,1003.38
2019-03-08T09:39:38.693Z,1003.32
2019-03-08T09:40:38.665Z,1003.37
2019-03-08T09:41:38.641Z,1003.38
2019-03-08T09:42:38.617Z,1003.41
2019-03-08T09:43:38.616Z,1003.42
2019-03-08T09:44:38.568Z,1003.44
2019-03-08T09:45:38.548Z,1003.48
2019-03-08T09:46:38.518Z,1003.44
2019-03-08T09:47:38.494Z,1003.55
2019-03-08T09:48:38.470Z,1003.52
2019-03-08T09:49:38.451Z,1003.59
2019-03-08T09:50:38.422Z,1003.59
2019-03-08T09:51:38.398Z,1003.59
2019-03-08T09:52:38.374Z,1003.58
2019-03-08T09:53:38.352Z,1003.67
2019-03-08T09:54:38.333Z,1003.62
2019-03-08T09:55:38.303Z,1003.64
2019-03-08T09:56:38.283Z,1003.69
2019-03-08T09:57:38.259Z,1003.69
2019-03-08T09:58:38.231Z,1003.76
2019-03-08T09:59:38.229Z,1003.65
2019-03-08T10:00:38.198Z,1003.72
2019-03-08T10:01:38.162Z,1003.81
2019-03-08T10:02:38.138Z,1003.85
2019-03-08T10:03:38.166Z,1003.75
2019-03-08T10:04:38.122Z,1003.72
2019-03-08T10:05:38.068Z,1003.78
2019-03-08T10:06:38.751Z,1003.75
2019-03-08T10:07:38.028Z,1003.78
2019-03-08T10:08:38.000Z,1003.84
2019-03-08T10:09:37.976Z,1003.96
2019-03-08T10:10:37.951Z,1003.82
2019-03-08T10:11:37.939Z,1003.81
2019-03-08T10:12:37.922Z,1003.86
2019-03-08T10:13:37.882Z,1003.73
2019-03-08T10:14:37.861Z,1003.70
2019-03-08T10:15:37.833Z,1003.74
2019-03-08T10:16:37.809Z,1003.93
2019-03-08T10:17:37.786Z,1003.87
2019-03-08T10:18:37.773Z,1003.91
2019-03-08T10:19:37.771Z,1003.91
2019-03-08T10:20:37.739Z,1003.91
2019-03-08T10:21:37.705Z,1003.92
2019-03-08T10:22:37.667Z,1003.94
2019-03-08T10:23:37.645Z,1004.01
2019-03-08T10:24:37.621Z,1004.09
2019-03-08T10:25:37.600Z,1004.08
2019-03-08T10:26:37.575Z,1004.08
2019-03-08T10:27:38.428Z,1004.07
2019-03-08T10:28:37.532Z,1004.20
2019-03-08T10:29:37.504Z,1004.16
2019-03-08T10:30:37.480Z,1004.16
2019-03-08T10:31:37.460Z,1004.22
2019-03-08T10:32:37.814Z,1004.29
2019-03-08T10:33:46.057Z,1004.35
2019-03-08T10:34:37.390Z,1004.33
2019-03-08T10:35:37.370Z,1004.33
2019-03-08T10:36:37.345Z,1004.36
2019-03-08T10:37:37.345Z,1004.30
2019-03-08T10:38:37.299Z,1004.35
2019-03-08T10:39:37.279Z,1004.35
2019-03-08T10:40:37.254Z,1004.36
2019-03-08T10:41:37.233Z,1004.37
2019-03-08T10:42:37.210Z,1004.41
2019-03-08T10:43:37.189Z,1004.39
2019-03-08T10:44:37.171Z,1004.43
2019-03-08T10:45:37.145Z,1004.39
2019-03-08T10:46:37.123Z,1004.48
2019-03-08T10:47:37.117Z,1004.50
2019-03-08T10:48:37.091Z,1004.43
2019-03-08T10:49:37.054Z,1004.42
2019-03-08T10:50:37.031Z,1004.52
2019-03-08T10:51:37.013Z,1004.56
2019-03-08T10:52:36.987Z,1004.48
2019-03-08T10:53:36.965Z,1004.47
2019-03-08T10:54:36.941Z,1004.52
2019-03-08T10:55:36.952Z,1004.65
2019-03-08T10:56:36.896Z,1004.59
2019-03-08T10:57:36.876Z,1004.59
2019-03-08T10:58:36.853Z,1004.67
2019-03-08T10:59:36.833Z,1004.70
2019-03-08T11:00:36.807Z,1004.64
2019-03-08T11:01:36.784Z,1004.62
2019-03-08T11:02:36.763Z,1004.70
2019-03-08T11:03:36.741Z,1004.71
2019-03-08T11:04:36.722Z,1004.73
2019-03-08T11:05:36.698Z,1004.80
2019-03-08T11:06:36.675Z,1004.84
2019-03-08T11:07:36.654Z,1004.79
2019-03-08T11:08:36.632Z,1004.86
2019-03-08T11:09:36.617Z,1004.82
2019-03-08T11:10:36.591Z,1004.87
2019-03-08T11:11:36.569Z,1005.00
2019-03-08T11:12:36.553Z,1004.89
2019-03-08T11:13:42.992Z,1004.95
2019-03-08T11:14:36.503Z,1004.92
2019-03-08T11:15:36.481Z,1004.90
2019-03-08T11:16:36.461Z,1004.91
2019-03-08T11:17:36.442Z,1004.92
2019-03-08T11:18:36.420Z,1004.91
2019-03-08T11:19:36.399Z,1004.98
2019-03-08T11:20:36.379Z,1004.98
2019-03-08T11:21:36.361Z,1004.98
2019-03-08T11:22:36.341Z,1005.02
2019-03-08T11:23:36.321Z,1005.05
2019-03-08T11:24:36.300Z,1004.98
2019-03-08T11:25:36.299Z,1005.01
2019-03-08T11:26:36.262Z,1004.96
2019-03-08T11:27:36.244Z,1005.03
2019-03-08T11:28:36.224Z,1005.13
2019-03-08T11:29:36.209Z,1004.99
2019-03-08T11:30:36.189Z,1005.16
2019-03-08T11:31:36.169Z,1005.06
2019-03-08T11:32:36.150Z,1005.12
2019-03-08T11:33:36.130Z,1005.20
2019-03-08T11:34:36.111Z,1005.23
2019-03-08T11:35:36.666Z,1005.11
2019-03-08T11:36:36.073Z,1005.21
2019-03-08T11:37:36.056Z,1005.16
2019-03-08T11:38:36.038Z,1005.18
2019-03-08T11:39:36.018Z,1005.11
2019-03-08T11:40:35.998Z,1005.17
2019-03-08T11:41:35.979Z,1005.15
2019-03-08T11:42:35.959Z,1005.18
2019-03-08T11:43:35.945Z,1005.10
2019-03-08T11:44:35.926Z,1005.16
2019-03-08T11:45:35.905Z,1005.17
2019-03-08T11:46:35.888Z,1005.20
2019-03-08T11:47:35.865Z,1005.21
2019-03-08T11:48:35.845Z,1005.26
2019-03-08T11:49:35.825Z,1005.26
2019-03-08T11:50:35.803Z,1005.33
2019-03-08T11:51:35.801Z,1005.54
2019-03-08T11:52:35.781Z,1005.57
2019-03-08T11:53:35.743Z,1005.62
2019-03-08T11:54:40.864Z,1005.73
2019-03-08T11:55:35.705Z,1005.74
2019-03-08T11:56:35.687Z,1005.77
2019-03-08T11:57:35.663Z,1005.79
2019-03-08T11:58:35.646Z,1005.79
2019-03-08T11:59:35.620Z,1005.75
2019-03-08T12:00:35.599Z,1005.83
2019-03-08T12:01:35.581Z,1005.86
2019-03-08T12:02:38.000Z,1005.79
2019-03-08T12:03:35.538Z,1005.77
2019-03-08T12:04:35.514Z,1005.88
2019-03-08T12:05:35.501Z,1005.83
2019-03-08T12:06:35.472Z,1005.83
2019-03-08T12:07:35.456Z,1005.86
2019-03-08T12:08:35.430Z,1005.93
2019-03-08T12:09:35.414Z,1005.95
2019-03-08T12:10:35.387Z,1005.97
2019-03-08T12:11:35.367Z,1005.98
2019-03-08T12:12:35.343Z,1005.95
2019-03-08T12:13:35.325Z,1005.92
2019-03-08T12:14:35.300Z,1005.90
2019-03-08T12:15:35.280Z,1005.89
2019-03-08T12:16:35.259Z,1005.91
2019-03-08T12:17:35.236Z,1005.93
2019-03-08T12:18:35.217Z,1005.96
2019-03-08T12:19:35.191Z,1005.93